createdAt,value
2024-02-29T00:08:39.150Z,78.8
2024-02-29T00:24:04.554Z,78.8
2024-02-29T00:39:29.134Z,78.8
2024-02-29T00:54:56.409Z,78.8
2024-02-29T01:10:21.772Z,79
2024-02-29T01:25:47.148Z,79
2024-02-29T01:41:12.227Z,79
2024-02-29T01:56:37.227Z,79
2024-02-29T02:12:01.704Z,79
2024-02-29T02:27:26.799Z,79
2024-02-29T02:42:51.522Z,79
2024-02-29T02:58:17.143Z,78.8
2024-02-29T03:13:42.357Z,78.6
2024-02-29T03:29:07.544Z,78.5
2024-02-29T03:44:32.337Z,78.4
2024-02-29T03:59:57.217Z,78.7
2024-02-29T04:15:21.582Z,78.6
2024-02-29T04:30:46.471Z,78.8
2024-02-29T04:46:12.106Z,78.9
2024-02-29T05:01:37.940Z,78.9
2024-02-29T05:17:03.181Z,78.9
2024-02-29T05:32:28.472Z,78.8
2024-02-29T05:47:53.785Z,78.8
2024-02-29T06:03:18.847Z,78.7
2024-02-29T06:18:44.060Z,78.6
2024-02-29T06:34:09.071Z,78.5
2024-02-29T06:49:34.256Z,78.3
2024-02-29T07:04:59.607Z,78.2
2024-02-29T07:20:29.609Z,77.9
2024-02-29T07:35:55.110Z,77.6
2024-02-29T07:51:20.606Z,77.3
2024-02-29T08:06:45.900Z,76.9
2024-02-29T08:22:11.516Z,76.5
2024-02-29T08:37:36.537Z,76.1
2024-02-29T08:53:01.372Z,76
2024-02-29T09:08:26.600Z,75.9
2024-02-29T09:23:52.265Z,75.7
2024-02-29T09:39:17.766Z,75.3
2024-02-29T09:54:43.546Z,75.1
2024-02-29T10:10:09.261Z,74.7
2024-02-29T10:25:34.644Z,73.7
2024-02-29T10:40:59.857Z,73.8
2024-02-29T10:56:25.444Z,73.4
2024-02-29T11:11:51.093Z,73.2
2024-02-29T11:27:15.944Z,73
2024-02-29T11:42:40.950Z,72.9
2024-02-29T11:58:06.447Z,72.7
2024-02-29T12:13:31.831Z,69.4
2024-02-29T12:29:01.420Z,64.9
2024-02-29T12:44:24.795Z,67.2
2024-02-29T12:59:50.983Z,66.4
2024-02-29T13:15:16.298Z,66.7
2024-02-29T13:30:45.121Z,66.1
2024-02-29T13:46:10.996Z,64.9
2024-02-29T14:01:37.397Z,62.7
2024-02-29T14:17:01.536Z,64.8
2024-02-29T14:32:26.448Z,66
2024-02-29T14:47:51.573Z,66.7
2024-02-29T15:03:16.406Z,66.9
2024-02-29T15:18:41.715Z,67.2
2024-02-29T15:34:06.936Z,67.9
2024-02-29T15:49:34.241Z,68.4
2024-02-29T16:04:59.320Z,68.8
2024-02-29T16:20:24.499Z,69
2024-02-29T16:35:49.794Z,69.2
2024-02-29T16:51:15.014Z,69.3
2024-02-29T17:06:40.285Z,69.4
2024-02-29T17:22:05.302Z,69.6
2024-02-29T17:37:31.807Z,69.8
2024-02-29T17:52:57.502Z,69.8
2024-02-29T18:08:22.292Z,69.1
2024-02-29T18:23:47.578Z,69.9
2024-02-29T18:39:16.032Z,70
2024-02-29T18:54:41.126Z,70
2024-02-29T19:10:06.649Z,69.9
2024-02-29T19:25:31.886Z,70
2024-02-29T19:40:56.910Z,70
2024-02-29T19:56:21.627Z,70.1
2024-02-29T20:11:47.390Z,70.1
2024-02-29T20:27:13.139Z,70.2
2024-02-29T20:42:38.023Z,70.3
2024-02-29T20:58:03.646Z,70.5
2024-02-29T21:13:30.163Z,70.9
2024-02-29T21:28:55.779Z,70.7
2024-02-29T21:44:21.501Z,70.8
2024-02-29T21:59:47.328Z,71
2024-02-29T22:15:12.200Z,70.7
2024-02-29T22:30:38.079Z,71.2
2024-02-29T22:46:03.406Z,71.4
2024-02-29T23:01:28.669Z,71.5
2024-02-29T23:16:54.174Z,71.6
2024-02-29T23:32:19.886Z,71.8
2024-02-29T23:47:45.413Z,72
